sensor_id;sensor_type;location;lat;lon;timestamp;pressure;altitude;pressure_sealevel;temperature;humidity
65173;BME280;69059;52.218;5.172;2023-04-08T00:00:32;100525.69;;;8.61;100.00
65173;BME280;69059;52.218;5.172;2023-04-08T00:03:00;100540.06;;;8.49;100.00
65173;BME280;69059;52.218;5.172;2023-04-08T00:05:28;100542.06;;;8.39;100.00
65173;BME280;69059;52.218;5.172;2023-04-08T00:07:57;100530.19;;;8.44;100.00
65173;BME280;69059;52.218;5.172;2023-04-08T00:10:25;100516.31;;;8.52;100.00
65173;BME280;69059;52.218;5.172;2023-04-08T00:12:53;100514.50;;;8.52;100.00
65173;BME280;69059;52.218;5.172;2023-04-08T00:15:21;100503.59;;;8.57;100.00
65173;BME280;69059;52.218;5.172;2023-04-08T00:17:48;100501.63;;;8.59;100.00
65173;BME280;69059;52.218;5.172;2023-04-08T00:20:16;100496.59;;;8.57;100.00
65173;BME280;69059;52.218;5.172;2023-04-08T00:22:44;100490.84;;;8.62;100.00
65173;BME280;69059;52.218;5.172;2023-04-08T00:25:13;100485.03;;;8.60;100.00
65173;BME280;69059;52.218;5.172;2023-04-08T00:27:41;100490.94;;;8.54;100.00
65173;BME280;69059;52.218;5.172;2023-04-08T00:30:09;100502.19;;;8.46;100.00
65173;BME280;69059;52.218;5.172;2023-04-08T00:32:37;100511.81;;;8.46;100.00
65173;BME280;69059;52.218;5.172;2023-04-08T00:35:05;100516.34;;;8.44;100.00
65173;BME280;69059;52.218;5.172;2023-04-08T00:37:33;100521.72;;;8.42;100.00
65173;BME280;69059;52.218;5.172;2023-04-08T00:40:01;100531.81;;;8.45;100.00
65173;BME280;69059;52.218;5.172;2023-04-08T00:42:31;100524.03;;;8.37;100.00
65173;BME280;69059;52.218;5.172;2023-04-08T00:44:58;100543.03;;;8.46;100.00
65173;BME280;69059;52.218;5.172;2023-04-08T00:47:26;100540.59;;;8.44;100.00
65173;BME280;69059;52.218;5.172;2023-04-08T00:49:54;100550.19;;;8.44;100.00
65173;BME280;69059;52.218;5.172;2023-04-08T00:52:22;100547.41;;;8.45;100.00
65173;BME280;69059;52.218;5.172;2023-04-08T00:54:49;100541.88;;;8.48;100.00
65173;BME280;69059;52.218;5.172;2023-04-08T00:57:17;100534.25;;;8.39;100.00
65173;BME280;69059;52.218;5.172;2023-04-08T00:59:46;100543.03;;;8.46;100.00
65173;BME280;69059;52.218;5.172;2023-04-08T01:02:17;100540.63;;;8.28;100.00
65173;BME280;69059;52.218;5.172;2023-04-08T01:04:54;100536.88;;;8.31;100.00
65173;BME280;69059;52.218;5.172;2023-04-08T01:07:26;100545.03;;;8.27;100.00
65173;BME280;69059;52.218;5.172;2023-04-08T01:09:56;100536.75;;;8.32;100.00
65173;BME280;69059;52.218;5.172;2023-04-08T01:12:25;100531.03;;;8.28;100.00
65173;BME280;69059;52.218;5.172;2023-04-08T01:14:59;100525.19;;;8.26;100.00
65173;BME280;69059;52.218;5.172;2023-04-08T01:17:28;100528.44;;;8.28;100.00
65173;BME280;69059;52.218;5.172;2023-04-08T01:19:59;100525.84;;;8.28;100.00
65173;BME280;69059;52.218;5.172;2023-04-08T01:22:33;100519.00;;;8.27;100.00
65173;BME280;69059;52.218;5.172;2023-04-08T01:25:05;100520.34;;;8.32;100.00
65173;BME280;69059;52.218;5.172;2023-04-08T01:27:37;100515.13;;;8.32;100.00
65173;BME280;69059;52.218;5.172;2023-04-08T01:30:07;100526.16;;;8.25;100.00
65173;BME280;69059;52.218;5.172;2023-04-08T01:32:35;100523.28;;;8.20;100.00
65173;BME280;69059;52.218;5.172;2023-04-08T01:35:05;100523.13;;;8.22;100.00
65173;BME280;69059;52.218;5.172;2023-04-08T01:37:33;100511.75;;;8.23;100.00
65173;BME280;69059;52.218;5.172;2023-04-08T01:40:03;100505.81;;;7.98;100.00
65173;BME280;69059;52.218;5.172;2023-04-08T01:42:31;100498.50;;;8.02;100.00
65173;BME280;69059;52.218;5.172;2023-04-08T01:45:02;100506.06;;;8.19;100.00
65173;BME280;69059;52.218;5.172;2023-04-08T01:47:32;100501.84;;;8.18;100.00
65173;BME280;69059;52.218;5.172;2023-04-08T01:50:01;100499.25;;;8.18;100.00
65173;BME280;69059;52.218;5.172;2023-04-08T01:52:31;100495.81;;;8.18;100.00
65173;BME280;69059;52.218;5.172;2023-04-08T01:55:01;100494.03;;;8.18;100.00
65173;BME280;69059;52.218;5.172;2023-04-08T01:57:31;100496.13;;;8.23;100.00
65173;BME280;69059;52.218;5.172;2023-04-08T02:00:05;100492.88;;;8.21;100.00
65173;BME280;69059;52.218;5.172;2023-04-08T02:02:35;100485.25;;;8.19;100.00
65173;BME280;69059;52.218;5.172;2023-04-08T02:05:04;100490.75;;;8.24;100.00
65173;BME280;69059;52.218;5.172;2023-04-08T02:07:32;100492.41;;;8.17;100.00
65173;BME280;69059;52.218;5.172;2023-04-08T02:09:59;100492.28;;;8.11;100.00
65173;BME280;69059;52.218;5.172;2023-04-08T02:12:27;100479.19;;;7.96;100.00
65173;BME280;69059;52.218;5.172;2023-04-08T02:14:55;100493.78;;;8.05;100.00
65173;BME280;69059;52.218;5.172;2023-04-08T02:17:33;100487.75;;;8.05;100.00
65173;BME280;69059;52.218;5.172;2023-04-08T02:20:05;100447.31;;;7.71;100.00
65173;BME280;69059;52.218;5.172;2023-04-08T02:22:38;100475.25;;;8.00;100.00
65173;BME280;69059;52.218;5.172;2023-04-08T02:25:10;100466.09;;;8.12;100.00
65173;BME280;69059;52.218;5.172;2023-04-08T02:27:39;100462.25;;;8.08;100.00
65173;BME280;69059;52.218;5.172;2023-04-08T02:30:09;100455.38;;;8.15;100.00
65173;BME280;69059;52.218;5.172;2023-04-08T02:32:40;100452.50;;;8.10;100.00
65173;BME280;69059;52.218;5.172;2023-04-08T02:35:08;100447.22;;;8.18;100.00
65173;BME280;69059;52.218;5.172;2023-04-08T02:37:37;100444.78;;;8.17;100.00
65173;BME280;69059;52.218;5.172;2023-04-08T02:40:24;100441.31;;;8.24;100.00
65173;BME280;69059;52.218;5.172;2023-04-08T02:42:52;100433.19;;;8.27;100.00
65173;BME280;69059;52.218;5.172;2023-04-08T02:45:20;100435.78;;;8.27;100.00
65173;BME280;69059;52.218;5.172;2023-04-08T02:47:50;100446.84;;;8.30;100.00
65173;BME280;69059;52.218;5.172;2023-04-08T02:50:17;100441.31;;;8.33;100.00
65173;BME280;69059;52.218;5.172;2023-04-08T02:52:45;100438.81;;;8.39;100.00
65173;BME280;69059;52.218;5.172;2023-04-08T02:55:13;100439.38;;;8.35;100.00
65173;BME280;69059;52.218;5.172;2023-04-08T02:57:41;100442.78;;;8.27;100.00
65173;BME280;69059;52.218;5.172;2023-04-08T03:00:10;100450.97;;;8.16;100.00
65173;BME280;69059;52.218;5.172;2023-04-08T03:02:38;100450.16;;;8.15;100.00
65173;BME280;69059;52.218;5.172;2023-04-08T03:05:08;100429.84;;;8.19;100.00
65173;BME280;69059;52.218;5.172;2023-04-08T03:07:36;100412.69;;;8.10;100.00
65173;BME280;69059;52.218;5.172;2023-04-08T03:10:05;100427.06;;;8.20;100.00
65173;BME280;69059;52.218;5.172;2023-04-08T03:12:33;100423.59;;;8.28;100.00
65173;BME280;69059;52.218;5.172;2023-04-08T03:15:01;100419.28;;;8.20;100.00
65173;BME280;69059;52.218;5.172;2023-04-08T03:17:29;100414.88;;;8.21;100.00
65173;BME280;69059;52.218;5.172;2023-04-08T03:19:59;100414.97;;;8.27;100.00
65173;BME280;69059;52.218;5.172;2023-04-08T03:22:28;100410.75;;;8.26;100.00
65173;BME280;69059;52.218;5.172;2023-04-08T03:24:56;100410.94;;;8.25;100.00
65173;BME280;69059;52.218;5.172;2023-04-08T03:27:23;100412.53;;;8.26;100.00
65173;BME280;69059;52.218;5.172;2023-04-08T03:29:51;100419.91;;;8.22;100.00
65173;BME280;69059;52.218;5.172;2023-04-08T03:32:19;100421.06;;;8.20;100.00
65173;BME280;69059;52.218;5.172;2023-04-08T03:34:47;100423.50;;;8.21;100.00
65173;BME280;69059;52.218;5.172;2023-04-08T03:37:16;100428.69;;;8.21;100.00
65173;BME280;69059;52.218;5.172;2023-04-08T03:39:45;100441.69;;;8.21;100.00
65173;BME280;69059;52.218;5.172;2023-04-08T03:42:13;100443.97;;;8.16;100.00
65173;BME280;69059;52.218;5.172;2023-04-08T03:44:41;100457.69;;;8.10;100.00
65173;BME280;69059;52.218;5.172;2023-04-08T03:47:09;100460.56;;;8.15;100.00
65173;BME280;69059;52.218;5.172;2023-04-08T03:49:37;100466.00;;;8.06;100.00
65173;BME280;69059;52.218;5.172;2023-04-08T03:52:05;100466.00;;;8.06;100.00
65173;BME280;69059;52.218;5.172;2023-04-08T03:54:33;100477.88;;;8.00;100.00
65173;BME280;69059;52.218;5.172;2023-04-08T03:57:02;100484.84;;;8.00;100.00
65173;BME280;69059;52.218;5.172;2023-04-08T03:59:29;100488.63;;;7.97;100.00
65173;BME280;69059;52.218;5.172;2023-04-08T04:01:59;100481.81;;;7.96;100.00
65173;BME280;69059;52.218;5.172;2023-04-08T04:04:27;100494.97;;;7.95;100.00
65173;BME280;69059;52.218;5.172;2023-04-08T04:06:54;100501.16;;;7.85;100.00
65173;BME280;69059;52.218;5.172;2023-04-08T04:09:22;100508.94;;;7.85;100.00
65173;BME280;69059;52.218;5.172;2023-04-08T04:11:50;100505.22;;;7.88;100.00
65173;BME280;69059;52.218;5.172;2023-04-08T04:14:19;100506.22;;;7.79;100.00
65173;BME280;69059;52.218;5.172;2023-04-08T04:16:46;100526.75;;;7.58;100.00
65173;BME280;69059;52.218;5.172;2023-04-08T04:19:14;100536.97;;;7.51;100.00
65173;BME280;69059;52.218;5.172;2023-04-08T04:21:43;100551.63;;;7.44;100.00
65173;BME280;69059;52.218;5.172;2023-04-08T04:24:10;100565.91;;;7.40;100.00
65173;BME280;69059;52.218;5.172;2023-04-08T04:26:39;100590.59;;;7.28;100.00
65173;BME280;69059;52.218;5.172;2023-04-08T04:29:07;100620.28;;;7.17;100.00
65173;BME280;69059;52.218;5.172;2023-04-08T04:31:36;100641.00;;;7.01;100.00
65173;BME280;69059;52.218;5.172;2023-04-08T04:34:03;100666.59;;;6.79;100.00
65173;BME280;69059;52.218;5.172;2023-04-08T04:36:31;100692.84;;;6.68;100.00
65173;BME280;69059;52.218;5.172;2023-04-08T04:38:59;100717.75;;;6.61;100.00
65173;BME280;69059;52.218;5.172;2023-04-08T04:41:26;100734.41;;;6.51;100.00
65173;BME280;69059;52.218;5.172;2023-04-08T04:43:54;100741.34;;;6.42;100.00
65173;BME280;69059;52.218;5.172;2023-04-08T04:46:22;100746.28;;;6.35;100.00
65173;BME280;69059;52.218;5.172;2023-04-08T04:48:51;100756.25;;;6.22;100.00
65173;BME280;69059;52.218;5.172;2023-04-08T04:51:19;100774.34;;;6.14;100.00
65173;BME280;69059;52.218;5.172;2023-04-08T04:53:46;100791.63;;;6.05;100.00
65173;BME280;69059;52.218;5.172;2023-04-08T04:56:15;100796.53;;;5.91;100.00
65173;BME280;69059;52.218;5.172;2023-04-08T04:58:42;100808.91;;;5.87;100.00
65173;BME280;69059;52.218;5.172;2023-04-08T05:01:10;100800.47;;;5.85;100.00
65173;BME280;69059;52.218;5.172;2023-04-08T05:03:38;100801.22;;;5.78;100.00
65173;BME280;69059;52.218;5.172;2023-04-08T05:06:07;100798.56;;;5.69;100.00
65173;BME280;69059;52.218;5.172;2023-04-08T05:08:35;100800.34;;;5.69;100.00
65173;BME280;69059;52.218;5.172;2023-04-08T05:11:03;100799.16;;;5.63;100.00
65173;BME280;69059;52.218;5.172;2023-04-08T05:13:31;100805.56;;;5.59;100.00
65173;BME280;69059;52.218;5.172;2023-04-08T05:15:59;100808.31;;;5.58;100.00
65173;BME280;69059;52.218;5.172;2023-04-08T05:18:27;100808.91;;;5.52;100.00
65173;BME280;69059;52.218;5.172;2023-04-08T05:20:54;100816.41;;;5.45;100.00
65173;BME280;69059;52.218;5.172;2023-04-08T05:23:23;100805.03;;;5.38;100.00
65173;BME280;69059;52.218;5.172;2023-04-08T05:25:51;100810.13;;;5.30;100.00
65173;BME280;69059;52.218;5.172;2023-04-08T05:28:19;100809.97;;;5.31;100.00
65173;BME280;69059;52.218;5.172;2023-04-08T05:30:48;100808.78;;;5.26;100.00
65173;BME280;69059;52.218;5.172;2023-04-08T05:33:15;100796.22;;;5.31;100.00
65173;BME280;69059;52.218;5.172;2023-04-08T05:35:44;100805.66;;;5.22;100.00
65173;BME280;69059;52.218;5.172;2023-04-08T05:38:12;100801.44;;;5.21;100.00
65173;BME280;69059;52.218;5.172;2023-04-08T05:40:41;100812.59;;;5.22;100.00
65173;BME280;69059;52.218;5.172;2023-04-08T05:43:08;100809.06;;;5.23;100.00
65173;BME280;69059;52.218;5.172;2023-04-08T05:45:36;100813.56;;;5.21;100.00
65173;BME280;69059;52.218;5.172;2023-04-08T05:48:04;100819.03;;;5.18;100.00
65173;BME280;69059;52.218;5.172;2023-04-08T05:50:33;100825.31;;;5.15;100.00
65173;BME280;69059;52.218;5.172;2023-04-08T05:53:01;100837.28;;;5.16;100.00
65173;BME280;69059;52.218;5.172;2023-04-08T05:55:29;100838.53;;;5.12;100.00
65173;BME280;69059;52.218;5.172;2023-04-08T05:57:58;100841.06;;;5.22;100.00
65173;BME280;69059;52.218;5.172;2023-04-08T06:00:25;100846.94;;;5.24;100.00
65173;BME280;69059;52.218;5.172;2023-04-08T06:02:53;100851.56;;;5.20;100.00
65173;BME280;69059;52.218;5.172;2023-04-08T06:05:21;100853.72;;;5.25;100.00
65173;BME280;69059;52.218;5.172;2023-04-08T06:07:48;100843.91;;;5.28;100.00
65173;BME280;69059;52.218;5.172;2023-04-08T06:10:16;100850.06;;;5.27;100.00
65173;BME280;69059;52.218;5.172;2023-04-08T06:12:44;100876.84;;;5.36;100.00
65173;BME280;69059;52.218;5.172;2023-04-08T06:15:13;100881.59;;;5.40;100.00
65173;BME280;69059;52.218;5.172;2023-04-08T06:17:42;100897.09;;;5.50;100.00
65173;BME280;69059;52.218;5.172;2023-04-08T06:20:09;100903.56;;;5.64;100.00
65173;BME280;69059;52.218;5.172;2023-04-08T06:22:37;100910.75;;;5.70;100.00
65173;BME280;69059;52.218;5.172;2023-04-08T06:25:05;100919.31;;;5.80;100.00
65173;BME280;69059;52.218;5.172;2023-04-08T06:27:33;100934.03;;;5.80;100.00
65173;BME280;69059;52.218;5.172;2023-04-08T06:30:01;100950.16;;;6.01;100.00
65173;BME280;69059;52.218;5.172;2023-04-08T06:32:30;100962.56;;;6.25;100.00
65173;BME280;69059;52.218;5.172;2023-04-08T06:34:58;100978.56;;;6.38;100.00
65173;BME280;69059;52.218;5.172;2023-04-08T06:37:25;100989.38;;;6.33;100.00
65173;BME280;69059;52.218;5.172;2023-04-08T06:39:53;101036.91;;;6.52;100.00
65173;BME280;69059;52.218;5.172;2023-04-08T06:42:20;101047.00;;;6.90;100.00
65173;BME280;69059;52.218;5.172;2023-04-08T06:44:48;101064.56;;;7.14;100.00
65173;BME280;69059;52.218;5.172;2023-04-08T06:47:16;101075.13;;;7.38;100.00
65173;BME280;69059;52.218;5.172;2023-04-08T06:49:45;101115.28;;;7.44;100.00
65173;BME280;69059;52.218;5.172;2023-04-08T06:52:13;101135.72;;;7.65;100.00
65173;BME280;69059;52.218;5.172;2023-04-08T06:54:41;101147.66;;;7.75;100.00
65173;BME280;69059;52.218;5.172;2023-04-08T06:57:09;101179.97;;;7.99;100.00
65173;BME280;69059;52.218;5.172;2023-04-08T06:59:37;101218.16;;;7.98;100.00
65173;BME280;69059;52.218;5.172;2023-04-08T07:02:04;101225.94;;;8.34;100.00
65173;BME280;69059;52.218;5.172;2023-04-08T07:04:32;101247.84;;;8.57;100.00
65173;BME280;69059;52.218;5.172;2023-04-08T07:07:01;101248.66;;;8.99;100.00
65173;BME280;69059;52.218;5.172;2023-04-08T07:09:29;101246.84;;;9.42;100.00
65173;BME280;69059;52.218;5.172;2023-04-08T07:11:57;101273.25;;;9.63;100.00
65173;BME280;69059;52.218;5.172;2023-04-08T07:14:26;101314.94;;;9.47;100.00
65173;BME280;69059;52.218;5.172;2023-04-08T07:16:55;101312.44;;;9.29;100.00
65173;BME280;69059;52.218;5.172;2023-04-08T07:19:22;101324.00;;;8.93;100.00
65173;BME280;69059;52.218;5.172;2023-04-08T07:21:50;101334.53;;;8.57;100.00
65173;BME280;69059;52.218;5.172;2023-04-08T07:24:20;101341.00;;;8.53;100.00
65173;BME280;69059;52.218;5.172;2023-04-08T07:26:48;101351.06;;;8.31;100.00
65173;BME280;69059;52.218;5.172;2023-04-08T07:29:15;101373.88;;;8.01;100.00
65173;BME280;69059;52.218;5.172;2023-04-08T07:31:43;101363.56;;;8.09;100.00
65173;BME280;69059;52.218;5.172;2023-04-08T07:34:11;101356.50;;;8.19;100.00
65173;BME280;69059;52.218;5.172;2023-04-08T07:36:38;101362.66;;;8.18;100.00
65173;BME280;69059;52.218;5.172;2023-04-08T07:39:06;101360.09;;;8.62;100.00
65173;BME280;69059;52.218;5.172;2023-04-08T07:41:35;101357.47;;;9.14;100.00
65173;BME280;69059;52.218;5.172;2023-04-08T07:44:03;101376.59;;;9.73;100.00
65173;BME280;69059;52.218;5.172;2023-04-08T07:46:31;101427.31;;;9.86;100.00
65173;BME280;69059;52.218;5.172;2023-04-08T07:48:59;101434.22;;;10.12;100.00
65173;BME280;69059;52.218;5.172;2023-04-08T07:51:26;101471.97;;;10.25;100.00
65173;BME280;69059;52.218;5.172;2023-04-08T07:53:54;101483.75;;;10.70;100.00
65173;BME280;69059;52.218;5.172;2023-04-08T07:56:22;101489.59;;;11.04;100.00
65173;BME280;69059;52.218;5.172;2023-04-08T07:58:51;101516.50;;;11.29;100.00
65173;BME280;69059;52.218;5.172;2023-04-08T08:01:21;101582.50;;;10.83;100.00
65173;BME280;69059;52.218;5.172;2023-04-08T08:03:50;101551.66;;;11.10;100.00
65173;BME280;69059;52.218;5.172;2023-04-08T08:06:19;101593.47;;;10.86;100.00
65173;BME280;69059;52.218;5.172;2023-04-08T08:08:47;101584.25;;;10.66;100.00
65173;BME280;69059;52.218;5.172;2023-04-08T08:11:15;101574.94;;;10.55;100.00
65173;BME280;69059;52.218;5.172;2023-04-08T08:13:43;101563.94;;;10.27;100.00
65173;BME280;69059;52.218;5.172;2023-04-08T08:16:12;101529.06;;;9.94;100.00
65173;BME280;69059;52.218;5.172;2023-04-08T08:18:40;101553.84;;;9.64;100.00
65173;BME280;69059;52.218;5.172;2023-04-08T08:21:08;101540.31;;;10.03;100.00
65173;BME280;69059;52.218;5.172;2023-04-08T08:23:36;101504.94;;;10.51;100.00
65173;BME280;69059;52.218;5.172;2023-04-08T08:26:05;101488.78;;;11.04;100.00
65173;BME280;69059;52.218;5.172;2023-04-08T08:28:33;101526.25;;;11.60;100.00
65173;BME280;69059;52.218;5.172;2023-04-08T08:31:00;101542.94;;;12.06;100.00
65173;BME280;69059;52.218;5.172;2023-04-08T08:33:30;101562.97;;;12.61;100.00
65173;BME280;69059;52.218;5.172;2023-04-08T08:35:57;101633.38;;;12.25;100.00
65173;BME280;69059;52.218;5.172;2023-04-08T08:38:25;101642.16;;;12.32;100.00
65173;BME280;69059;52.218;5.172;2023-04-08T08:40:53;101667.66;;;11.50;100.00
65173;BME280;69059;52.218;5.172;2023-04-08T08:43:22;101655.56;;;11.25;100.00
65173;BME280;69059;52.218;5.172;2023-04-08T08:45:50;101602.78;;;11.29;100.00
65173;BME280;69059;52.218;5.172;2023-04-08T08:48:18;101574.81;;;11.54;100.00
65173;BME280;69059;52.218;5.172;2023-04-08T08:50:48;101596.19;;;11.66;100.00
65173;BME280;69059;52.218;5.172;2023-04-08T08:53:15;101536.53;;;13.16;100.00
65173;BME280;69059;52.218;5.172;2023-04-08T08:55:45;101506.44;;;14.79;100.00
65173;BME280;69059;52.218;5.172;2023-04-08T08:58:15;101531.31;;;15.94;100.00
65173;BME280;69059;52.218;5.172;2023-04-08T09:00:43;101738.31;;;16.58;100.00
65173;BME280;69059;52.218;5.172;2023-04-08T09:03:14;101760.53;;;17.44;100.00
65173;BME280;69059;52.218;5.172;2023-04-08T09:05:51;101993.59;;;17.38;100.00
65173;BME280;69059;52.218;5.172;2023-04-08T09:08:23;102138.59;;;17.95;100.00
65173;BME280;69059;52.218;5.172;2023-04-08T09:10:51;102133.81;;;18.59;100.00
65173;BME280;69059;52.218;5.172;2023-04-08T09:13:21;102123.91;;;19.14;100.00
65173;BME280;69059;52.218;5.172;2023-04-08T09:16:02;102167.28;;;19.13;100.00
65173;BME280;69059;52.218;5.172;2023-04-08T09:18:32;102216.41;;;19.68;100.00
65173;BME280;69059;52.218;5.172;2023-04-08T09:21:01;102205.50;;;20.29;100.00
65173;BME280;69059;52.218;5.172;2023-04-08T09:23:43;102270.53;;;20.58;100.00
65173;BME280;69059;52.218;5.172;2023-04-08T09:26:12;102335.75;;;20.79;100.00
65173;BME280;69059;52.218;5.172;2023-04-08T09:28:42;102243.03;;;20.33;100.00
65173;BME280;69059;52.218;5.172;2023-04-08T09:31:21;102244.84;;;20.90;100.00
65173;BME280;69059;52.218;5.172;2023-04-08T09:33:49;102395.50;;;21.59;100.00
65173;BME280;69059;52.218;5.172;2023-04-08T09:36:19;102290.00;;;21.28;100.00
65173;BME280;69059;52.218;5.172;2023-04-08T09:38:47;102397.22;;;21.40;100.00
65173;BME280;69059;52.218;5.172;2023-04-08T09:41:15;102371.16;;;21.18;100.00
65173;BME280;69059;52.218;5.172;2023-04-08T09:43:46;102288.66;;;21.75;100.00
65173;BME280;69059;52.218;5.172;2023-04-08T09:46:18;102331.16;;;19.89;100.00
65173;BME280;69059;52.218;5.172;2023-04-08T09:48:57;102328.81;;;20.85;100.00
65173;BME280;69059;52.218;5.172;2023-04-08T09:51:28;102387.72;;;21.13;100.00
65173;BME280;69059;52.218;5.172;2023-04-08T09:54:00;102361.59;;;21.10;100.00
65173;BME280;69059;52.218;5.172;2023-04-08T09:56:35;102358.53;;;21.83;100.00
65173;BME280;69059;52.218;5.172;2023-04-08T09:59:11;102423.00;;;21.40;100.00
65173;BME280;69059;52.218;5.172;2023-04-08T10:01:45;102402.03;;;21.19;100.00
65173;BME280;69059;52.218;5.172;2023-04-08T10:04:15;102414.41;;;22.07;100.00
65173;BME280;69059;52.218;5.172;2023-04-08T10:06:51;102421.91;;;22.17;100.00
65173;BME280;69059;52.218;5.172;2023-04-08T10:09:21;102426.97;;;21.04;100.00
65173;BME280;69059;52.218;5.172;2023-04-08T10:11:49;102389.31;;;20.10;100.00
65173;BME280;69059;52.218;5.172;2023-04-08T10:14:16;102421.31;;;20.09;100.00
65173;BME280;69059;52.218;5.172;2023-04-08T10:16:46;102417.03;;;20.01;100.00
65173;BME280;69059;52.218;5.172;2023-04-08T10:19:35;102363.72;;;18.95;100.00
65173;BME280;69059;52.218;5.172;2023-04-08T10:25:32;102400.25;;;19.67;100.00
65173;BME280;69059;52.218;5.172;2023-04-08T10:28:01;102437.25;;;19.07;100.00
65173;BME280;69059;52.218;5.172;2023-04-08T10:30:49;102420.78;;;19.52;100.00
65173;BME280;69059;52.218;5.172;2023-04-08T10:33:20;102404.41;;;18.60;100.00
65173;BME280;69059;52.218;5.172;2023-04-08T10:35:51;102408.47;;;19.38;100.00
65173;BME280;69059;52.218;5.172;2023-04-08T10:38:19;102412.38;;;20.56;100.00
65173;BME280;69059;52.218;5.172;2023-04-08T10:40:49;102419.19;;;21.23;100.00
65173;BME280;69059;52.218;5.172;2023-04-08T10:43:17;102452.81;;;21.42;100.00
65173;BME280;69059;52.218;5.172;2023-04-08T10:45:44;102492.50;;;21.30;94.00
65173;BME280;69059;52.218;5.172;2023-04-08T10:48:18;102473.31;;;21.22;96.23
65173;BME280;69059;52.218;5.172;2023-04-08T10:50:54;102455.91;;;21.77;100.00
65173;BME280;69059;52.218;5.172;2023-04-08T10:53:24;102439.28;;;22.44;100.00
65173;BME280;69059;52.218;5.172;2023-04-08T10:55:54;102472.31;;;22.37;93.28
65173;BME280;69059;52.218;5.172;2023-04-08T10:58:29;102469.03;;;22.60;94.97
65173;BME280;69059;52.218;5.172;2023-04-08T11:01:02;102499.44;;;21.18;87.46
65173;BME280;69059;52.218;5.172;2023-04-08T11:03:31;102489.78;;;21.50;94.29
65173;BME280;69059;52.218;5.172;2023-04-08T11:06:00;102464.94;;;21.69;100.00
65173;BME280;69059;52.218;5.172;2023-04-08T11:08:28;102452.13;;;22.97;100.00
65173;BME280;69059;52.218;5.172;2023-04-08T11:10:57;102493.69;;;23.35;89.25
65173;BME280;69059;52.218;5.172;2023-04-08T11:13:26;102496.75;;;23.38;88.44
65173;BME280;69059;52.218;5.172;2023-04-08T11:15:54;102495.84;;;22.65;87.90
65173;BME280;69059;52.218;5.172;2023-04-08T11:18:22;102517.81;;;22.29;79.79
65173;BME280;69059;52.218;5.172;2023-04-08T11:20:52;102513.03;;;22.37;80.87
65173;BME280;69059;52.218;5.172;2023-04-08T11:23:20;102494.53;;;22.49;88.66
65173;BME280;69059;52.218;5.172;2023-04-08T11:25:49;102504.31;;;22.80;80.17
65173;BME280;69059;52.218;5.172;2023-04-08T11:28:18;102486.44;;;22.37;89.01
65173;BME280;69059;52.218;5.172;2023-04-08T11:30:46;102489.69;;;23.44;85.77
65173;BME280;69059;52.218;5.172;2023-04-08T11:33:15;102500.34;;;23.80;82.41
65173;BME280;69059;52.218;5.172;2023-04-08T11:35:43;102495.72;;;23.87;82.27
65173;BME280;69059;52.218;5.172;2023-04-08T11:38:11;102504.94;;;23.73;76.09
65173;BME280;69059;52.218;5.172;2023-04-08T11:40:39;102502.16;;;23.68;79.40
65173;BME280;69059;52.218;5.172;2023-04-08T11:43:10;102500.63;;;23.90;83.28
65173;BME280;69059;52.218;5.172;2023-04-08T11:45:42;102516.00;;;24.83;70.73
65173;BME280;69059;52.218;5.172;2023-04-08T11:48:10;102514.47;;;25.22;69.03
65173;BME280;69059;52.218;5.172;2023-04-08T11:50:38;102509.97;;;24.88;69.66
65173;BME280;69059;52.218;5.172;2023-04-08T11:53:15;102514.69;;;24.39;63.89
65173;BME280;69059;52.218;5.172;2023-04-08T11:55:44;102313.31;;;23.77;100.00
65173;BME280;69059;52.218;5.172;2023-04-08T11:58:12;102491.91;;;25.82;85.75
65173;BME280;69059;52.218;5.172;2023-04-08T12:00:39;102477.66;;;26.60;90.31
65173;BME280;69059;52.218;5.172;2023-04-08T12:03:10;102493.94;;;27.30;83.99
65173;BME280;69059;52.218;5.172;2023-04-08T12:05:38;102507.59;;;27.72;68.43
65173;BME280;69059;52.218;5.172;2023-04-08T12:08:06;102514.00;;;26.22;74.34
65173;BME280;69059;52.218;5.172;2023-04-08T13:07:03;102450.84;;;21.69;95.26
65173;BME280;69059;52.218;5.172;2023-04-08T13:09:33;102476.25;;;21.58;91.92
65173;BME280;69059;52.218;5.172;2023-04-08T13:12:00;102503.75;;;21.13;78.22
65173;BME280;69059;52.218;5.172;2023-04-08T13:14:29;102466.63;;;20.99;91.13
65173;BME280;69059;52.218;5.172;2023-04-08T13:16:56;102470.72;;;20.56;91.74
65173;BME280;69059;52.218;5.172;2023-04-08T13:19:24;102451.16;;;20.44;97.41
65173;BME280;69059;52.218;5.172;2023-04-08T13:21:52;102465.19;;;20.24;92.94
65173;BME280;69059;52.218;5.172;2023-04-08T13:24:22;102477.13;;;19.74;92.06
65173;BME280;69059;52.218;5.172;2023-04-08T13:26:50;102454.53;;;19.85;96.08
65173;BME280;69059;52.218;5.172;2023-04-08T13:29:18;102464.28;;;19.78;95.14
65173;BME280;69059;52.218;5.172;2023-04-08T13:31:46;102441.81;;;19.60;99.59
65173;BME280;69059;52.218;5.172;2023-04-08T13:34:14;102445.28;;;19.61;99.42
65173;BME280;69059;52.218;5.172;2023-04-08T13:36:43;102448.13;;;19.59;100.00
65173;BME280;69059;52.218;5.172;2023-04-08T13:39:11;102458.16;;;19.29;96.53
65173;BME280;69059;52.218;5.172;2023-04-08T13:41:40;102450.34;;;18.80;99.08
65173;BME280;69059;52.218;5.172;2023-04-08T13:44:08;102461.63;;;18.95;92.86
65173;BME280;69059;52.218;5.172;2023-04-08T13:46:36;102440.59;;;19.22;99.10
65173;BME280;69059;52.218;5.172;2023-04-08T13:49:05;102415.69;;;19.51;100.00
65173;BME280;69059;52.218;5.172;2023-04-08T13:51:32;102429.19;;;19.69;100.00
65173;BME280;69059;52.218;5.172;2023-04-08T13:54:00;102434.78;;;18.99;100.00
65173;BME280;69059;52.218;5.172;2023-04-08T13:56:30;102435.31;;;19.76;99.31